createdAt,value
2023-05-10T00:00:03.377Z,6.28
2023-05-10T00:03:26.127Z,6.16
2023-05-10T00:06:29.101Z,6.05
2023-05-10T00:09:31.899Z,5.95
2023-05-10T00:12:34.768Z,5.85
2023-05-10T00:15:37.843Z,5.77
2023-05-10T00:18:41.245Z,5.69
2023-05-10T00:21:44.023Z,5.59
2023-05-10T00:24:46.908Z,5.50
2023-05-10T00:27:50.651Z,5.41
2023-05-10T00:30:53.355Z,5.32
2023-05-10T00:33:56.755Z,5.23
2023-05-10T00:36:59.584Z,5.12
2023-05-10T00:40:02.417Z,5.00
2023-05-10T00:43:05.353Z,4.88
2023-05-10T00:46:08.823Z,4.77
2023-05-10T00:49:12.281Z,4.70
2023-05-10T00:52:15.258Z,4.65
2023-05-10T00:55:18.946Z,4.63
2023-05-10T00:58:21.812Z,4.65
2023-05-10T01:01:25.011Z,4.68
2023-05-10T01:04:28.668Z,4.70
2023-05-10T01:07:31.497Z,4.72
2023-05-10T01:10:34.388Z,4.71
2023-05-10T01:13:39.798Z,4.72
2023-05-10T01:16:45.280Z,4.77
2023-05-10T01:19:48.123Z,4.86
2023-05-10T01:23:24.542Z,4.96
2023-05-10T01:26:42.315Z,5.09
2023-05-10T01:30:17.472Z,5.16
2023-05-10T01:33:28.033Z,5.26
2023-05-10T01:36:36.455Z,5.35
2023-05-10T01:39:45.394Z,5.41
2023-05-10T01:42:54.337Z,5.46
2023-05-10T01:46:15.692Z,5.49
2023-05-10T01:49:27.821Z,5.53
2023-05-10T01:52:34.848Z,5.54
2023-05-10T01:55:46.691Z,5.55
2023-05-10T01:58:52.142Z,5.56
2023-05-10T02:01:56.645Z,5.56
2023-05-10T02:05:00.616Z,5.53
2023-05-10T02:08:07.003Z,5.49
2023-05-10T02:11:13.779Z,5.45
2023-05-10T02:14:17.936Z,5.42
2023-05-10T02:17:22.182Z,5.41
2023-05-10T02:20:26.577Z,5.42
2023-05-10T02:23:30.725Z,5.43
2023-05-10T02:26:36.324Z,5.45
2023-05-10T02:29:40.441Z,5.47
2023-05-10T02:32:44.239Z,5.49
2023-05-10T02:35:48.013Z,5.49
2023-05-10T02:38:52.853Z,5.47
2023-05-10T02:41:57.011Z,5.43
2023-05-10T02:45:08.409Z,5.40
2023-05-10T02:48:11.557Z,5.35
2023-05-10T02:51:19.274Z,5.31
2023-05-10T02:54:28.580Z,5.23
2023-05-10T02:57:35.456Z,5.16
2023-05-10T03:00:38.430Z,5.09
2023-05-10T03:03:41.261Z,5.02
2023-05-10T03:10:06.364Z,4.92
2023-05-10T03:13:28.208Z,4.95
2023-05-10T03:16:44.794Z,5.02
2023-05-10T03:20:12.858Z,5.11
2023-05-10T03:23:42.603Z,5.22
2023-05-10T03:26:46.786Z,5.35
2023-05-10T03:29:52.217Z,5.56
2023-05-10T03:32:55.285Z,6.25
2023-05-10T03:35:58.137Z,7.04
2023-05-10T03:39:00.924Z,7.80
2023-05-10T03:42:03.825Z,8.57
2023-05-10T03:45:07.499Z,9.33
2023-05-10T03:48:10.359Z,10.08
2023-05-10T03:51:13.191Z,10.76
2023-05-10T03:54:15.991Z,11.25
2023-05-10T03:57:18.771Z,11.82
2023-05-10T04:00:21.522Z,12.34
2023-05-10T04:03:24.634Z,12.83
2023-05-10T04:06:27.542Z,13.34
2023-05-10T04:09:30.419Z,13.71
2023-05-10T04:12:33.234Z,14.09
2023-05-10T04:15:37.087Z,14.51
2023-05-10T04:18:40.886Z,14.92
2023-05-10T04:21:43.633Z,15.21
2023-05-10T04:24:46.623Z,15.53
2023-05-10T04:27:49.408Z,15.85
2023-05-10T04:30:52.485Z,16.26
2023-05-10T04:33:55.478Z,16.63
2023-05-10T04:36:58.316Z,16.88
2023-05-10T04:40:01.189Z,17.19
2023-05-10T04:43:03.994Z,16.90
2023-05-10T04:46:07.030Z,16.09
2023-05-10T04:49:10.695Z,15.45
2023-05-10T04:52:13.789Z,15.00
2023-05-10T04:55:17.186Z,14.66
2023-05-10T04:58:19.992Z,14.45
2023-05-10T05:01:24.179Z,14.32
2023-05-10T05:04:27.104Z,14.26
2023-05-10T05:07:31.575Z,14.24
2023-05-10T05:10:34.333Z,14.23
2023-05-10T05:13:37.155Z,14.28
2023-05-10T05:16:40.001Z,14.29
2023-05-10T05:19:42.796Z,14.31
2023-05-10T05:22:46.006Z,14.27
2023-05-10T05:25:48.778Z,14.26
2023-05-10T05:28:54.874Z,14.26
2023-05-10T05:31:57.791Z,14.36
2023-05-10T05:35:00.678Z,14.40
2023-05-10T05:38:03.518Z,14.45
2023-05-10T05:41:06.364Z,14.52
2023-05-10T05:44:09.275Z,14.68
2023-05-10T05:47:12.169Z,14.79
2023-05-10T05:50:14.928Z,14.90
2023-05-10T05:53:17.693Z,14.96
2023-05-10T05:56:25.444Z,15.05
2023-05-10T05:59:28.974Z,15.16
2023-05-10T06:02:31.908Z,15.30
2023-05-10T06:05:34.772Z,15.37
2023-05-10T06:08:37.549Z,15.47
2023-05-10T06:11:40.345Z,15.53
2023-05-10T06:14:43.126Z,15.60
2023-05-10T06:17:45.911Z,15.73
2023-05-10T06:20:48.706Z,15.83
2023-05-10T06:23:51.528Z,16.00
2023-05-10T06:26:54.338Z,16.13
2023-05-10T06:30:09.161Z,16.20
2023-05-10T06:33:17.048Z,16.34
2023-05-10T06:36:19.934Z,16.50
2023-05-10T06:39:22.703Z,16.64
2023-05-10T06:42:26.589Z,16.80
2023-05-10T06:45:29.364Z,16.91
2023-05-10T06:48:32.169Z,16.98
2023-05-10T06:51:34.970Z,17.05
2023-05-10T06:54:37.782Z,17.19
2023-05-10T06:57:40.569Z,17.34
2023-05-10T07:00:44.929Z,17.38
2023-05-10T07:03:47.769Z,17.40
2023-05-10T07:06:50.810Z,17.48
2023-05-10T07:09:53.629Z,17.70
2023-05-10T07:12:56.611Z,17.87
2023-05-10T07:16:00.787Z,17.94
2023-05-10T07:19:03.725Z,17.93
2023-05-10T07:22:06.572Z,18.10
2023-05-10T07:25:09.748Z,18.32
2023-05-10T07:28:12.606Z,18.46
2023-05-10T07:31:15.407Z,18.62
2023-05-10T07:34:18.171Z,18.73
2023-05-10T07:37:21.093Z,18.74
2023-05-10T07:40:23.943Z,18.75
2023-05-10T07:43:26.735Z,18.91
2023-05-10T07:46:29.660Z,18.96
2023-05-10T07:49:32.521Z,19.00
2023-05-10T07:52:35.368Z,18.99
2023-05-10T07:55:38.136Z,19.07
2023-05-10T07:58:40.855Z,19.25
2023-05-10T08:01:45.055Z,19.34
2023-05-10T08:04:48.075Z,19.36
2023-05-10T08:07:51.330Z,19.43
2023-05-10T08:10:55.402Z,19.49
2023-05-10T08:13:59.720Z,19.58
2023-05-10T08:17:03.109Z,19.59
2023-05-10T08:20:24.890Z,19.60
2023-05-10T08:23:28.847Z,19.61
2023-05-10T08:26:32.502Z,19.67
2023-05-10T08:29:48.928Z,19.79
2023-05-10T08:32:55.961Z,19.91
2023-05-10T08:35:59.382Z,20.00
2023-05-10T08:39:23.017Z,19.96
2023-05-10T08:42:39.095Z,20.27
2023-05-10T08:45:54.101Z,20.53
2023-05-10T08:49:00.167Z,20.78
2023-05-10T08:52:06.595Z,21.00
2023-05-10T08:55:12.765Z,21.08
2023-05-10T08:58:23.160Z,21.02
2023-05-10T09:01:29.091Z,20.50
2023-05-10T09:04:37.491Z,20.04
2023-05-10T09:07:41.072Z,19.83
2023-05-10T09:10:48.910Z,19.78
2023-05-10T09:13:57.940Z,19.64
2023-05-10T09:17:09.028Z,19.28
2023-05-10T09:20:12.240Z,19.12
2023-05-10T09:23:20.018Z,19.48
2023-05-10T09:26:25.939Z,19.58
2023-05-10T09:29:43.883Z,19.55
2023-05-10T09:32:49.411Z,19.49
2023-05-10T09:35:53.952Z,19.28
2023-05-10T09:38:57.627Z,19.29
2023-05-10T09:42:08.257Z,19.42
2023-05-10T09:45:11.273Z,19.69
2023-05-10T09:48:22.880Z,20.11
2023-05-10T09:51:28.411Z,20.17
2023-05-10T09:54:32.785Z,19.89
2023-05-10T09:57:36.064Z,19.82
2023-05-10T10:00:53.426Z,20.08
2023-05-10T10:03:59.038Z,20.30
2023-05-10T10:07:03.894Z,20.64
2023-05-10T10:10:12.675Z,21.08
2023-05-10T10:13:16.572Z,21.27
2023-05-10T10:16:21.034Z,21.13
2023-05-10T10:19:25.905Z,21.37
2023-05-10T10:22:29.750Z,21.74
2023-05-10T10:25:33.440Z,21.63
2023-05-10T10:28:53.903Z,21.55
2023-05-10T10:32:35.900Z,21.64
2023-05-10T10:35:41.518Z,21.90
2023-05-10T10:38:47.233Z,21.87
2023-05-10T10:42:01.948Z,21.75
2023-05-10T10:45:18.778Z,21.53
2023-05-10T10:48:26.038Z,21.31
2023-05-10T10:51:32.457Z,21.29
2023-05-10T10:54:36.415Z,21.45
2023-05-10T10:57:46.310Z,21.53
2023-05-10T11:00:50.462Z,21.71
2023-05-10T11:04:00.139Z,21.94
2023-05-10T11:07:19.090Z,22.38
2023-05-10T11:10:23.110Z,22.52
2023-05-10T11:13:52.638Z,22.47
2023-05-10T11:16:55.569Z,22.83
2023-05-10T11:20:10.531Z,23.01
2023-05-10T11:23:16.972Z,23.05
2023-05-10T11:26:20.020Z,23.18
2023-05-10T11:29:23.725Z,23.25
2023-05-10T11:32:27.892Z,23.44
2023-05-10T11:35:32.095Z,23.42
2023-05-10T11:38:34.951Z,23.11
2023-05-10T11:41:38.334Z,22.77
2023-05-10T11:44:44.073Z,22.70
2023-05-10T11:47:51.397Z,22.66
2023-05-10T11:50:58.991Z,22.69
2023-05-10T11:54:01.869Z,22.72
2023-05-10T11:57:05.216Z,22.98
2023-05-10T12:00:09.232Z,23.11
2023-05-10T12:03:12.424Z,23.14
2023-05-10T12:06:17.257Z,23.13
2023-05-10T12:09:35.537Z,23.18
2023-05-10T12:12:51.401Z,22.79
2023-05-10T12:16:15.129Z,22.74
2023-05-10T12:19:22.730Z,22.68
2023-05-10T12:22:26.075Z,22.62
2023-05-10T12:25:34.654Z,22.51
2023-05-10T12:28:39.433Z,22.35
2023-05-10T12:31:57.732Z,22.14
2023-05-10T12:35:01.133Z,22.10
2023-05-10T12:38:27.448Z,22.42
2023-05-10T12:41:31.137Z,22.49
2023-05-10T12:44:34.112Z,22.76
2023-05-10T12:47:37.773Z,22.98
2023-05-10T12:50:41.123Z,22.76
2023-05-10T12:53:49.251Z,22.70
2023-05-10T12:56:54.837Z,22.73
2023-05-10T13:03:25.980Z,22.83
2023-05-10T13:06:29.459Z,22.96
2023-05-10T13:09:33.700Z,23.06
2023-05-10T13:12:39.502Z,22.95
2023-05-10T13:15:43.751Z,22.86
2023-05-10T13:18:47.446Z,22.83
2023-05-10T13:21:51.935Z,22.86
2023-05-10T13:24:55.314Z,22.82
2023-05-10T13:27:58.177Z,22.75
2023-05-10T13:31:01.709Z,22.87
2023-05-10T13:34:04.869Z,23.08
2023-05-10T13:37:08.324Z,23.31
2023-05-10T13:40:16.930Z,23.47
2023-05-10T13:43:21.034Z,23.47
2023-05-10T13:46:24.405Z,23.14
2023-05-10T13:49:27.872Z,22.68
2023-05-10T13:52:31.768Z,22.44
2023-05-10T13:55:35.789Z,22.51
2023-05-10T13:58:39.358Z,22.91
2023-05-10T14:01:43.918Z,23.40
2023-05-10T14:04:47.581Z,23.78
2023-05-10T14:07:52.461Z,24.10
2023-05-10T14:10:58.234Z,24.04
2023-05-10T14:14:02.765Z,23.82
2023-05-10T14:17:13.068Z,23.84
2023-05-10T14:20:16.535Z,23.72
2023-05-10T14:23:21.317Z,23.58
2023-05-10T14:26:24.388Z,23.48
2023-05-10T14:29:27.269Z,23.35
2023-05-10T14:32:31.107Z,23.26
2023-05-10T14:35:34.085Z,23.46
2023-05-10T14:38:37.986Z,23.71
2023-05-10T14:41:43.973Z,23.85
2023-05-10T14:44:47.753Z,23.75
2023-05-10T14:47:51.796Z,23.59
2023-05-10T14:50:55.524Z,23.52
2023-05-10T14:53:58.712Z,23.43
2023-05-10T14:57:04.691Z,23.29
2023-05-10T15:00:19.144Z,23.30
2023-05-10T15:03:27.391Z,23.34
2023-05-10T15:06:43.081Z,23.09
2023-05-10T15:09:48.588Z,22.82
2023-05-10T15:12:56.245Z,22.62
2023-05-10T15:16:05.286Z,22.42
2023-05-10T15:19:09.466Z,22.10
2023-05-10T15:22:17.841Z,21.78
2023-05-10T15:25:24.228Z,21.57
2023-05-10T15:28:28.592Z,21.40
2023-05-10T15:31:32.859Z,21.21
2023-05-10T15:35:00.873Z,20.80
2023-05-10T15:38:05.291Z,20.42
2023-05-10T15:41:10.717Z,20.11
2023-05-10T15:44:14.584Z,19.79
2023-05-10T15:47:18.505Z,19.45
2023-05-10T15:50:22.199Z,19.21
2023-05-10T15:53:27.989Z,19.07
2023-05-10T15:56:38.470Z,18.95
2023-05-10T15:59:43.016Z,18.87
2023-05-10T16:02:55.241Z,18.69
2023-05-10T16:06:01.067Z,18.54
2023-05-10T16:09:04.802Z,18.49
2023-05-10T16:12:12.743Z,18.49
2023-05-10T16:15:36.488Z,18.46
2023-05-10T16:18:40.317Z,18.39
2023-05-10T16:21:47.999Z,18.33
2023-05-10T16:24:53.654Z,18.25
2023-05-10T16:28:04.567Z,18.15
2023-05-10T16:31:13.004Z,18.08
2023-05-10T16:34:25.462Z,18.00
2023-05-10T16:37:28.976Z,17.91
2023-05-10T16:40:36.052Z,17.90
2023-05-10T16:43:41.747Z,17.93
2023-05-10T16:46:46.306Z,17.97
2023-05-10T16:49:54.402Z,17.99
2023-05-10T16:52:58.567Z,17.99
2023-05-10T16:56:28.825Z,17.92
2023-05-10T16:59:34.405Z,17.77
2023-05-10T17:02:50.465Z,17.62
2023-05-10T17:05:54.014Z,17.48
2023-05-10T17:08:58.701Z,17.30
2023-05-10T17:12:03.490Z,17.12
2023-05-10T17:15:13.278Z,16.92
2023-05-10T17:18:18.815Z,16.73
2023-05-10T17:21:24.120Z,16.58
2023-05-10T17:24:29.858Z,16.44
2023-05-10T17:27:35.584Z,16.32
2023-05-10T17:30:45.273Z,16.17
2023-05-10T17:33:49.700Z,16.08
2023-05-10T17:36:56.147Z,15.98
2023-05-10T17:40:00.717Z,15.87
2023-05-10T17:43:06.485Z,15.78
2023-05-10T17:46:19.155Z,15.66
2023-05-10T17:49:24.060Z,15.56
2023-05-10T17:52:32.092Z,15.47
2023-05-10T17:55:45.621Z,15.35
2023-05-10T17:58:51.399Z,15.25
2023-05-10T18:02:17.035Z,15.15
2023-05-10T18:05:23.055Z,15.04
2023-05-10T18:08:29.950Z,14.95
2023-05-10T18:11:55.896Z,14.85
2023-05-10T18:15:14.613Z,14.75
2023-05-10T18:18:25.457Z,14.64
2023-05-10T18:21:39.126Z,14.51
2023-05-10T18:24:47.120Z,14.38
2023-05-10T18:27:54.129Z,14.25
2023-05-10T18:31:01.235Z,14.11
2023-05-10T18:34:06.444Z,13.99
2023-05-10T18:37:25.895Z,13.87
2023-05-10T18:40:41.631Z,13.75
2023-05-10T18:44:32.067Z,13.63
2023-05-10T18:47:46.446Z,13.51
2023-05-10T18:50:51.044Z,13.40
2023-05-10T18:54:07.642Z,13.31
2023-05-10T18:57:16.462Z,13.22
2023-05-10T19:00:24.459Z,13.14
2023-05-10T19:03:32.036Z,13.09
2023-05-10T19:06:38.504Z,13.03
2023-05-10T19:09:41.690Z,12.96
2023-05-10T19:12:45.195Z,12.90
2023-05-10T19:16:06.197Z,12.86
2023-05-10T19:19:17.519Z,12.83
2023-05-10T19:22:32.072Z,12.82
2023-05-10T19:25:44.677Z,12.79
2023-05-10T19:28:51.382Z,12.76
2023-05-10T19:31:58.433Z,12.74
2023-05-10T19:35:10.942Z,12.71
2023-05-10T19:38:36.753Z,12.68
2023-05-10T19:41:51.292Z,12.59
2023-05-10T19:45:12.194Z,12.55
2023-05-10T19:48:23.600Z,12.52
2023-05-10T19:51:34.683Z,12.48
2023-05-10T19:54:47.124Z,12.46
2023-05-10T19:58:10.531Z,12.42
2023-05-10T20:01:33.908Z,12.37
2023-05-10T20:04:58.829Z,12.34
2023-05-10T20:08:17.203Z,12.32
2023-05-10T20:11:29.210Z,12.31
2023-05-10T20:14:43.237Z,12.31
2023-05-10T20:18:19.044Z,12.34
2023-05-10T20:22:06.497Z,12.33
2023-05-10T20:25:18.689Z,12.31
2023-05-10T20:28:23.545Z,12.28
2023-05-10T20:31:26.578Z,12.27
2023-05-10T20:34:32.280Z,12.26
2023-05-10T20:37:35.236Z,12.25
2023-05-10T20:40:39.123Z,12.24
2023-05-10T20:43:42.312Z,12.22
2023-05-10T20:46:45.290Z,12.19
2023-05-10T20:49:48.115Z,12.15
2023-05-10T20:52:53.810Z,12.11
2023-05-10T20:55:56.766Z,12.08
2023-05-10T20:58:59.593Z,12.05
2023-05-10T21:02:02.457Z,12.01
2023-05-10T21:05:06.064Z,11.98
2023-05-10T21:08:08.970Z,11.94
2023-05-10T21:11:11.909Z,11.91
2023-05-10T21:14:14.702Z,11.86
2023-05-10T21:17:19.914Z,11.85
2023-05-10T21:20:23.893Z,11.81
2023-05-10T21:23:26.835Z,11.75
2023-05-10T21:26:29.814Z,11.70
2023-05-10T21:29:32.622Z,11.66
2023-05-10T21:32:36.924Z,11.66
2023-05-10T21:35:42.918Z,11.65
2023-05-10T21:38:46.714Z,11.60
2023-05-10T21:41:49.514Z,11.56
2023-05-10T21:44:52.681Z,11.50
2023-05-10T21:47:55.805Z,11.45
2023-05-10T21:50:59.363Z,11.41
2023-05-10T21:54:02.209Z,11.37
2023-05-10T21:57:05.182Z,11.32
2023-05-10T22:00:10.395Z,11.26
2023-05-10T22:03:13.512Z,11.21
2023-05-10T22:06:16.581Z,11.17
2023-05-10T22:09:19.596Z,11.15
2023-05-10T22:12:22.538Z,11.13
2023-05-10T22:15:25.595Z,11.09
2023-05-10T22:18:28.924Z,11.07
2023-05-10T22:21:32.817Z,11.05
2023-05-10T22:24:36.909Z,11.03
2023-05-10T22:27:40.756Z,10.99
2023-05-10T22:30:43.954Z,10.94
2023-05-10T22:33:47.030Z,10.90
2023-05-10T22:36:50.583Z,10.85
2023-05-10T22:39:53.745Z,10.81
2023-05-10T22:42:56.652Z,10.79
2023-05-10T22:45:59.637Z,10.77
2023-05-10T22:49:02.713Z,10.75
2023-05-10T22:52:05.578Z,10.72
2023-05-10T22:55:09.618Z,10.68
2023-05-10T22:58:12.810Z,10.65
2023-05-10T23:01:15.957Z,10.61
2023-05-10T23:04:18.899Z,10.55
2023-05-10T23:07:21.777Z,10.47
2023-05-10T23:10:24.637Z,10.39
2023-05-10T23:13:27.681Z,10.30
2023-05-10T23:16:30.743Z,10.21
2023-05-10T23:19:33.790Z,10.12
2023-05-10T23:22:37.509Z,10.02
2023-05-10T23:25:40.677Z,9.91
2023-05-10T23:28:43.790Z,9.81
2023-05-10T23:31:50.733Z,9.72
2023-05-10T23:34:53.889Z,9.63
2023-05-10T23:37:56.852Z,9.53
2023-05-10T23:40:59.669Z,9.43
2023-05-10T23:44:02.737Z,9.32
2023-05-10T23:47:06.116Z,9.22
2023-05-10T23:50:09.706Z,9.13
2023-05-10T23:53:12.702Z,9.06
2023-05-10T23:56:15.737Z,9.00
2023-05-10T23:59:18.740Z,8.91
